sensor_id;sensor_type;location;lat;lon;timestamp;P1;durP1;ratioP1;P2;durP2;ratioP2
34541;SDS011;20784;51.332;12.410;2023-03-01T00:00:54;28.35;;;14.77;;
34541;SDS011;20784;51.332;12.410;2023-03-01T00:03:25;27.27;;;15.27;;
34541;SDS011;20784;51.332;12.410;2023-03-01T00:05:50;27.23;;;15.52;;
34541;SDS011;20784;51.332;12.410;2023-03-01T00:08:16;24.48;;;14.77;;
34541;SDS011;20784;51.332;12.410;2023-03-01T00:10:42;26.25;;;14.75;;
34541;SDS011;20784;51.332;12.410;2023-03-01T00:13:07;22.63;;;14.05;;
34541;SDS011;20784;51.332;12.410;2023-03-01T00:15:33;23.65;;;13.25;;
34541;SDS011;20784;51.332;12.410;2023-03-01T00:18:03;22.77;;;13.85;;
34541;SDS011;20784;51.332;12.410;2023-03-01T00:20:29;23.23;;;13.50;;
34541;SDS011;20784;51.332;12.410;2023-03-01T00:22:54;23.10;;;13.00;;
34541;SDS011;20784;51.332;12.410;2023-03-01T00:25:20;21.27;;;12.75;;
34541;SDS011;20784;51.332;12.410;2023-03-01T00:27:48;23.35;;;13.48;;
34541;SDS011;20784;51.332;12.410;2023-03-01T00:30:14;28.23;;;15.90;;
34541;SDS011;20784;51.332;12.410;2023-03-01T00:32:40;22.95;;;13.60;;
34541;SDS011;20784;51.332;12.410;2023-03-01T00:35:08;24.40;;;14.23;;
34541;SDS011;20784;51.332;12.410;2023-03-01T00:37:37;25.15;;;13.88;;
34541;SDS011;20784;51.332;12.410;2023-03-01T00:40:03;23.90;;;14.02;;
34541;SDS011;20784;51.332;12.410;2023-03-01T00:42:31;24.38;;;14.57;;
34541;SDS011;20784;51.332;12.410;2023-03-01T00:44:56;22.83;;;14.27;;
34541;SDS011;20784;51.332;12.410;2023-03-01T00:47:22;24.45;;;14.13;;
34541;SDS011;20784;51.332;12.410;2023-03-01T00:49:48;23.88;;;14.05;;
34541;SDS011;20784;51.332;12.410;2023-03-01T00:52:13;23.52;;;13.35;;
34541;SDS011;20784;51.332;12.410;2023-03-01T00:54:39;31.98;;;15.07;;
34541;SDS011;20784;51.332;12.410;2023-03-01T00:57:04;25.83;;;14.57;;
34541;SDS011;20784;51.332;12.410;2023-03-01T00:59:30;23.60;;;14.25;;
34541;SDS011;20784;51.332;12.410;2023-03-01T01:01:56;22.77;;;14.63;;
34541;SDS011;20784;51.332;12.410;2023-03-01T01:04:24;32.67;;;15.93;;
34541;SDS011;20784;51.332;12.410;2023-03-01T01:06:50;22.83;;;14.05;;
34541;SDS011;20784;51.332;12.410;2023-03-01T01:09:16;23.88;;;14.75;;
34541;SDS011;20784;51.332;12.410;2023-03-01T01:11:51;25.38;;;14.77;;
34541;SDS011;20784;51.332;12.410;2023-03-01T01:14:24;26.52;;;14.75;;
34541;SDS011;20784;51.332;12.410;2023-03-01T01:16:50;26.23;;;14.50;;
34541;SDS011;20784;51.332;12.410;2023-03-01T01:19:18;24.48;;;13.95;;
34541;SDS011;20784;51.332;12.410;2023-03-01T01:21:44;25.00;;;14.65;;
34541;SDS011;20784;51.332;12.410;2023-03-01T01:24:10;25.13;;;14.45;;
34541;SDS011;20784;51.332;12.410;2023-03-01T01:26:36;24.92;;;14.38;;
34541;SDS011;20784;51.332;12.410;2023-03-01T01:29:03;24.48;;;14.88;;
34541;SDS011;20784;51.332;12.410;2023-03-01T01:31:30;23.67;;;13.68;;
34541;SDS011;20784;51.332;12.410;2023-03-01T01:33:56;25.48;;;14.65;;
34541;SDS011;20784;51.332;12.410;2023-03-01T01:36:25;26.55;;;13.43;;
34541;SDS011;20784;51.332;12.410;2023-03-01T01:38:51;25.33;;;14.00;;
34541;SDS011;20784;51.332;12.410;2023-03-01T01:41:18;26.95;;;14.30;;
34541;SDS011;20784;51.332;12.410;2023-03-01T01:43:45;26.65;;;14.07;;
34541;SDS011;20784;51.332;12.410;2023-03-01T01:46:27;24.83;;;14.55;;
34541;SDS011;20784;51.332;12.410;2023-03-01T01:49:04;23.00;;;14.52;;
34541;SDS011;20784;51.332;12.410;2023-03-01T01:51:40;25.13;;;13.82;;
34541;SDS011;20784;51.332;12.410;2023-03-01T01:54:10;22.17;;;13.90;;
34541;SDS011;20784;51.332;12.410;2023-03-01T01:56:39;24.63;;;14.98;;
34541;SDS011;20784;51.332;12.410;2023-03-01T01:59:07;26.08;;;14.85;;
34541;SDS011;20784;51.332;12.410;2023-03-01T02:01:34;24.33;;;14.27;;
34541;SDS011;20784;51.332;12.410;2023-03-01T02:04:00;25.77;;;14.57;;
34541;SDS011;20784;51.332;12.410;2023-03-01T02:06:27;23.73;;;14.30;;
34541;SDS011;20784;51.332;12.410;2023-03-01T02:08:57;24.33;;;13.85;;
34541;SDS011;20784;51.332;12.410;2023-03-01T02:11:27;23.42;;;14.13;;
34541;SDS011;20784;51.332;12.410;2023-03-01T02:13:54;21.65;;;13.35;;
34541;SDS011;20784;51.332;12.410;2023-03-01T02:16:20;23.42;;;13.05;;
34541;SDS011;20784;51.332;12.410;2023-03-01T02:18:50;21.23;;;13.43;;
34541;SDS011;20784;51.332;12.410;2023-03-01T02:27:17;22.08;;;14.10;;
34541;SDS011;20784;51.332;12.410;2023-03-01T02:29:49;20.60;;;13.27;;
34541;SDS011;20784;51.332;12.410;2023-03-01T02:32:15;24.08;;;12.40;;
34541;SDS011;20784;51.332;12.410;2023-03-01T02:37:14;20.58;;;13.57;;
34541;SDS011;20784;51.332;12.410;2023-03-01T02:39:51;23.10;;;13.70;;
34541;SDS011;20784;51.332;12.410;2023-03-01T02:42:23;24.40;;;13.40;;
34541;SDS011;20784;51.332;12.410;2023-03-01T02:44:53;24.63;;;13.67;;
34541;SDS011;20784;51.332;12.410;2023-03-01T02:47:18;27.02;;;14.40;;
34541;SDS011;20784;51.332;12.410;2023-03-01T02:49:44;21.85;;;12.90;;
34541;SDS011;20784;51.332;12.410;2023-03-01T02:52:20;21.52;;;11.95;;
34541;SDS011;20784;51.332;12.410;2023-03-01T02:55:08;26.85;;;13.07;;
34541;SDS011;20784;51.332;12.410;2023-03-01T02:57:42;26.13;;;13.18;;
34541;SDS011;20784;51.332;12.410;2023-03-01T03:00:09;23.77;;;12.50;;
34541;SDS011;20784;51.332;12.410;2023-03-01T03:02:44;20.90;;;12.55;;
34541;SDS011;20784;51.332;12.410;2023-03-01T03:05:13;22.40;;;12.75;;
34541;SDS011;20784;51.332;12.410;2023-03-01T03:07:42;24.92;;;13.02;;
34541;SDS011;20784;51.332;12.410;2023-03-01T03:10:15;21.85;;;13.05;;
34541;SDS011;20784;51.332;12.410;2023-03-01T03:12:52;26.17;;;12.57;;
34541;SDS011;20784;51.332;12.410;2023-03-01T03:15:20;23.25;;;12.63;;
34541;SDS011;20784;51.332;12.410;2023-03-01T03:17:47;23.38;;;12.90;;
34541;SDS011;20784;51.332;12.410;2023-03-01T03:20:14;22.90;;;13.63;;
34541;SDS011;20784;51.332;12.410;2023-03-01T03:22:49;24.23;;;13.05;;
34541;SDS011;20784;51.332;12.410;2023-03-01T03:25:17;20.50;;;12.35;;
34541;SDS011;20784;51.332;12.410;2023-03-01T03:27:43;20.95;;;12.25;;
34541;SDS011;20784;51.332;12.410;2023-03-01T03:30:15;24.83;;;12.82;;
34541;SDS011;20784;51.332;12.410;2023-03-01T03:32:43;23.20;;;12.70;;
34541;SDS011;20784;51.332;12.410;2023-03-01T03:35:18;23.88;;;13.10;;
34541;SDS011;20784;51.332;12.410;2023-03-01T03:37:51;21.77;;;13.57;;
34541;SDS011;20784;51.332;12.410;2023-03-01T03:40:38;26.17;;;13.93;;
34541;SDS011;20784;51.332;12.410;2023-03-01T03:43:05;22.98;;;12.55;;
34541;SDS011;20784;51.332;12.410;2023-03-01T03:45:34;24.73;;;12.05;;
34541;SDS011;20784;51.332;12.410;2023-03-01T03:48:01;23.65;;;12.32;;
34541;SDS011;20784;51.332;12.410;2023-03-01T03:50:31;25.40;;;13.00;;
34541;SDS011;20784;51.332;12.410;2023-03-01T03:52:57;23.80;;;13.52;;
34541;SDS011;20784;51.332;12.410;2023-03-01T03:55:25;24.95;;;13.77;;
34541;SDS011;20784;51.332;12.410;2023-03-01T03:57:56;19.17;;;12.73;;
34541;SDS011;20784;51.332;12.410;2023-03-01T04:00:39;22.83;;;14.27;;
34541;SDS011;20784;51.332;12.410;2023-03-01T04:03:06;23.70;;;13.38;;
34541;SDS011;20784;51.332;12.410;2023-03-01T04:05:32;20.30;;;13.30;;
34541;SDS011;20784;51.332;12.410;2023-03-01T04:07:58;23.90;;;13.65;;
34541;SDS011;20784;51.332;12.410;2023-03-01T04:10:43;23.90;;;12.75;;
34541;SDS011;20784;51.332;12.410;2023-03-01T04:13:30;22.52;;;12.50;;
34541;SDS011;20784;51.332;12.410;2023-03-01T04:15:56;25.10;;;13.30;;
34541;SDS011;20784;51.332;12.410;2023-03-01T04:18:22;21.77;;;13.05;;
34541;SDS011;20784;51.332;12.410;2023-03-01T04:20:50;24.00;;;12.45;;
34541;SDS011;20784;51.332;12.410;2023-03-01T04:23:18;23.58;;;12.80;;
34541;SDS011;20784;51.332;12.410;2023-03-01T04:28:27;21.40;;;12.50;;
34541;SDS011;20784;51.332;12.410;2023-03-01T04:31:02;20.63;;;13.13;;
34541;SDS011;20784;51.332;12.410;2023-03-01T04:33:42;21.95;;;12.10;;
34541;SDS011;20784;51.332;12.410;2023-03-01T04:36:10;16.98;;;11.32;;
34541;SDS011;20784;51.332;12.410;2023-03-01T04:38:39;22.75;;;13.02;;
34541;SDS011;20784;51.332;12.410;2023-03-01T04:41:05;19.60;;;12.10;;
34541;SDS011;20784;51.332;12.410;2023-03-01T04:43:33;23.35;;;12.63;;
34541;SDS011;20784;51.332;12.410;2023-03-01T04:46:03;20.00;;;12.35;;
34541;SDS011;20784;51.332;12.410;2023-03-01T04:48:31;20.67;;;12.25;;
34541;SDS011;20784;51.332;12.410;2023-03-01T04:50:58;22.02;;;12.18;;
34541;SDS011;20784;51.332;12.410;2023-03-01T04:53:26;26.42;;;12.60;;
34541;SDS011;20784;51.332;12.410;2023-03-01T04:55:53;23.70;;;13.10;;
34541;SDS011;20784;51.332;12.410;2023-03-01T04:58:20;25.00;;;13.40;;
34541;SDS011;20784;51.332;12.410;2023-03-01T05:00:47;23.05;;;12.25;;
34541;SDS011;20784;51.332;12.410;2023-03-01T05:03:13;19.73;;;12.00;;
34541;SDS011;20784;51.332;12.410;2023-03-01T05:05:43;21.00;;;12.68;;
34541;SDS011;20784;51.332;12.410;2023-03-01T05:08:10;20.90;;;13.25;;
34541;SDS011;20784;51.332;12.410;2023-03-01T05:10:42;21.58;;;12.60;;
34541;SDS011;20784;51.332;12.410;2023-03-01T05:16:00;24.08;;;13.30;;
34541;SDS011;20784;51.332;12.410;2023-03-01T05:18:28;21.65;;;12.23;;
34541;SDS011;20784;51.332;12.410;2023-03-01T05:20:56;24.60;;;13.82;;
34541;SDS011;20784;51.332;12.410;2023-03-01T05:23:29;19.45;;;12.27;;
34541;SDS011;20784;51.332;12.410;2023-03-01T05:25:57;22.83;;;12.90;;
34541;SDS011;20784;51.332;12.410;2023-03-01T05:28:24;23.88;;;13.13;;
34541;SDS011;20784;51.332;12.410;2023-03-01T05:30:51;23.17;;;13.52;;
34541;SDS011;20784;51.332;12.410;2023-03-01T05:33:17;26.77;;;13.90;;
34541;SDS011;20784;51.332;12.410;2023-03-01T05:35:43;26.95;;;13.88;;
34541;SDS011;20784;51.332;12.410;2023-03-01T05:38:10;24.58;;;13.15;;
34541;SDS011;20784;51.332;12.410;2023-03-01T05:40:40;25.77;;;15.15;;
34541;SDS011;20784;51.332;12.410;2023-03-01T05:43:07;21.52;;;13.98;;
34541;SDS011;20784;51.332;12.410;2023-03-01T05:45:32;25.33;;;13.27;;
34541;SDS011;20784;51.332;12.410;2023-03-01T05:48:00;33.35;;;14.07;;
34541;SDS011;20784;51.332;12.410;2023-03-01T05:50:26;26.02;;;12.93;;
34541;SDS011;20784;51.332;12.410;2023-03-01T05:53:00;23.17;;;13.40;;
34541;SDS011;20784;51.332;12.410;2023-03-01T05:55:29;22.27;;;12.80;;
34541;SDS011;20784;51.332;12.410;2023-03-01T05:57:57;27.92;;;15.05;;
34541;SDS011;20784;51.332;12.410;2023-03-01T06:00:25;39.00;;;15.68;;
34541;SDS011;20784;51.332;12.410;2023-03-01T06:02:52;30.55;;;16.00;;
34541;SDS011;20784;51.332;12.410;2023-03-01T06:05:18;26.20;;;14.50;;
34541;SDS011;20784;51.332;12.410;2023-03-01T06:07:44;33.03;;;16.30;;
34541;SDS011;20784;51.332;12.410;2023-03-01T06:10:11;27.20;;;14.43;;
34541;SDS011;20784;51.332;12.410;2023-03-01T06:12:40;33.65;;;16.13;;
34541;SDS011;20784;51.332;12.410;2023-03-01T06:15:07;41.30;;;15.45;;
34541;SDS011;20784;51.332;12.410;2023-03-01T06:17:37;30.63;;;15.48;;
34541;SDS011;20784;51.332;12.410;2023-03-01T06:20:06;29.15;;;14.70;;
34541;SDS011;20784;51.332;12.410;2023-03-01T06:22:35;30.73;;;15.00;;
34541;SDS011;20784;51.332;12.410;2023-03-01T06:25:11;29.38;;;15.48;;
34541;SDS011;20784;51.332;12.410;2023-03-01T06:27:38;25.80;;;14.05;;
34541;SDS011;20784;51.332;12.410;2023-03-01T06:30:22;28.48;;;15.65;;
34541;SDS011;20784;51.332;12.410;2023-03-01T06:32:55;29.25;;;14.70;;
34541;SDS011;20784;51.332;12.410;2023-03-01T06:35:28;27.60;;;14.90;;
34541;SDS011;20784;51.332;12.410;2023-03-01T06:37:58;29.40;;;14.88;;
34541;SDS011;20784;51.332;12.410;2023-03-01T06:40:25;32.80;;;15.17;;
34541;SDS011;20784;51.332;12.410;2023-03-01T06:42:57;26.33;;;15.63;;
34541;SDS011;20784;51.332;12.410;2023-03-01T06:45:26;34.80;;;15.55;;
34541;SDS011;20784;51.332;12.410;2023-03-01T06:48:01;31.30;;;15.90;;
34541;SDS011;20784;51.332;12.410;2023-03-01T06:50:30;29.08;;;14.15;;
34541;SDS011;20784;51.332;12.410;2023-03-01T06:53:03;29.77;;;14.57;;
34541;SDS011;20784;51.332;12.410;2023-03-01T06:55:57;31.48;;;15.35;;
34541;SDS011;20784;51.332;12.410;2023-03-01T06:58:30;29.17;;;14.85;;
34541;SDS011;20784;51.332;12.410;2023-03-01T07:01:07;28.05;;;14.82;;
34541;SDS011;20784;51.332;12.410;2023-03-01T07:03:45;24.20;;;14.37;;
34541;SDS011;20784;51.332;12.410;2023-03-01T07:06:11;27.95;;;14.50;;
34541;SDS011;20784;51.332;12.410;2023-03-01T07:08:37;26.45;;;14.45;;
34541;SDS011;20784;51.332;12.410;2023-03-01T07:11:10;44.95;;;15.38;;
34541;SDS011;20784;51.332;12.410;2023-03-01T07:13:36;25.10;;;14.07;;
34541;SDS011;20784;51.332;12.410;2023-03-01T07:16:01;33.25;;;13.93;;
34541;SDS011;20784;51.332;12.410;2023-03-01T07:18:27;31.60;;;14.05;;
34541;SDS011;20784;51.332;12.410;2023-03-01T07:20:56;30.60;;;13.65;;
34541;SDS011;20784;51.332;12.410;2023-03-01T07:23:21;26.52;;;12.73;;
34541;SDS011;20784;51.332;12.410;2023-03-01T07:25:53;30.00;;;12.98;;
34541;SDS011;20784;51.332;12.410;2023-03-01T07:28:19;25.52;;;13.18;;
34541;SDS011;20784;51.332;12.410;2023-03-01T07:30:47;26.35;;;13.70;;
34541;SDS011;20784;51.332;12.410;2023-03-01T07:33:15;31.38;;;13.35;;
34541;SDS011;20784;51.332;12.410;2023-03-01T07:35:55;23.58;;;13.18;;
34541;SDS011;20784;51.332;12.410;2023-03-01T07:38:21;29.08;;;12.85;;
34541;SDS011;20784;51.332;12.410;2023-03-01T07:43:24;22.02;;;13.45;;
34541;SDS011;20784;51.332;12.410;2023-03-01T07:45:49;25.05;;;13.25;;
34541;SDS011;20784;51.332;12.410;2023-03-01T07:48:18;22.23;;;13.00;;
34541;SDS011;20784;51.332;12.410;2023-03-01T07:50:43;24.08;;;14.23;;
34541;SDS011;20784;51.332;12.410;2023-03-01T07:53:09;21.67;;;13.73;;
34541;SDS011;20784;51.332;12.410;2023-03-01T07:55:35;19.05;;;11.88;;
34541;SDS011;20784;51.332;12.410;2023-03-01T07:58:04;24.23;;;14.05;;
34541;SDS011;20784;51.332;12.410;2023-03-01T08:00:29;24.65;;;13.35;;
34541;SDS011;20784;51.332;12.410;2023-03-01T08:02:58;24.92;;;14.77;;
34541;SDS011;20784;51.332;12.410;2023-03-01T08:05:24;27.08;;;14.52;;
34541;SDS011;20784;51.332;12.410;2023-03-01T08:07:50;26.88;;;14.35;;
34541;SDS011;20784;51.332;12.410;2023-03-01T08:10:16;24.77;;;14.55;;
34541;SDS011;20784;51.332;12.410;2023-03-01T08:12:42;25.85;;;15.43;;
34541;SDS011;20784;51.332;12.410;2023-03-01T08:15:07;25.95;;;13.85;;
34541;SDS011;20784;51.332;12.410;2023-03-01T08:17:33;21.33;;;13.40;;
34541;SDS011;20784;51.332;12.410;2023-03-01T08:19:59;26.30;;;14.35;;
34541;SDS011;20784;51.332;12.410;2023-03-01T08:22:28;25.48;;;14.13;;
34541;SDS011;20784;51.332;12.410;2023-03-01T08:24:53;27.75;;;14.40;;
34541;SDS011;20784;51.332;12.410;2023-03-01T08:27:22;23.90;;;14.27;;
34541;SDS011;20784;51.332;12.410;2023-03-01T08:29:48;32.45;;;14.45;;
34541;SDS011;20784;51.332;12.410;2023-03-01T08:32:13;22.50;;;14.32;;
34541;SDS011;20784;51.332;12.410;2023-03-01T08:34:39;23.80;;;13.73;;
34541;SDS011;20784;51.332;12.410;2023-03-01T08:37:05;31.30;;;14.45;;
34541;SDS011;20784;51.332;12.410;2023-03-01T08:39:30;24.55;;;14.30;;
34541;SDS011;20784;51.332;12.410;2023-03-01T08:41:59;23.60;;;14.52;;
34541;SDS011;20784;51.332;12.410;2023-03-01T08:44:25;24.48;;;14.90;;
34541;SDS011;20784;51.332;12.410;2023-03-01T08:46:50;27.85;;;13.82;;
34541;SDS011;20784;51.332;12.410;2023-03-01T08:49:18;21.67;;;13.90;;
34541;SDS011;20784;51.332;12.410;2023-03-01T08:51:44;24.83;;;14.55;;
34541;SDS011;20784;51.332;12.410;2023-03-01T08:54:12;25.40;;;14.40;;
34541;SDS011;20784;51.332;12.410;2023-03-01T08:56:41;28.58;;;14.82;;
34541;SDS011;20784;51.332;12.410;2023-03-01T08:59:07;25.08;;;13.93;;
34541;SDS011;20784;51.332;12.410;2023-03-01T09:01:34;25.52;;;14.43;;
34541;SDS011;20784;51.332;12.410;2023-03-01T09:04:00;25.13;;;14.40;;
34541;SDS011;20784;51.332;12.410;2023-03-01T09:06:26;28.88;;;14.32;;
34541;SDS011;20784;51.332;12.410;2023-03-01T09:08:51;24.48;;;14.98;;
34541;SDS011;20784;51.332;12.410;2023-03-01T09:11:19;23.35;;;15.35;;
34541;SDS011;20784;51.332;12.410;2023-03-01T09:13:46;25.83;;;15.02;;
34541;SDS011;20784;51.332;12.410;2023-03-01T09:16:13;28.60;;;15.85;;
34541;SDS011;20784;51.332;12.410;2023-03-01T09:18:42;25.02;;;15.48;;
34541;SDS011;20784;51.332;12.410;2023-03-01T09:21:12;25.65;;;15.45;;
34541;SDS011;20784;51.332;12.410;2023-03-01T09:23:40;25.40;;;15.00;;
34541;SDS011;20784;51.332;12.410;2023-03-01T09:26:08;22.65;;;14.45;;
34541;SDS011;20784;51.332;12.410;2023-03-01T09:28:41;27.55;;;15.48;;
34541;SDS011;20784;51.332;12.410;2023-03-01T09:31:07;28.17;;;14.80;;
34541;SDS011;20784;51.332;12.410;2023-03-01T09:33:38;23.05;;;14.65;;
34541;SDS011;20784;51.332;12.410;2023-03-01T09:36:06;24.02;;;15.18;;
34541;SDS011;20784;51.332;12.410;2023-03-01T09:38:36;28.83;;;15.45;;
34541;SDS011;20784;51.332;12.410;2023-03-01T09:41:02;24.17;;;14.63;;
34541;SDS011;20784;51.332;12.410;2023-03-01T09:43:44;23.25;;;15.05;;
34541;SDS011;20784;51.332;12.410;2023-03-01T09:46:13;26.42;;;14.88;;
34541;SDS011;20784;51.332;12.410;2023-03-01T09:48:58;23.05;;;15.45;;
34541;SDS011;20784;51.332;12.410;2023-03-01T09:51:34;22.30;;;14.43;;
34541;SDS011;20784;51.332;12.410;2023-03-01T09:54:06;23.77;;;15.27;;
34541;SDS011;20784;51.332;12.410;2023-03-01T09:56:44;24.85;;;15.70;;
34541;SDS011;20784;51.332;12.410;2023-03-01T09:59:23;26.70;;;15.37;;
34541;SDS011;20784;51.332;12.410;2023-03-01T10:01:59;19.63;;;14.52;;
34541;SDS011;20784;51.332;12.410;2023-03-01T10:07:14;26.70;;;15.90;;
34541;SDS011;20784;51.332;12.410;2023-03-01T10:10:04;24.98;;;14.57;;
34541;SDS011;20784;51.332;12.410;2023-03-01T10:12:35;25.05;;;14.07;;
34541;SDS011;20784;51.332;12.410;2023-03-01T10:15:50;24.10;;;15.38;;
34541;SDS011;20784;51.332;12.410;2023-03-01T10:18:21;26.38;;;15.35;;
34541;SDS011;20784;51.332;12.410;2023-03-01T10:20:54;26.70;;;15.55;;
34541;SDS011;20784;51.332;12.410;2023-03-01T10:23:29;26.92;;;14.43;;
34541;SDS011;20784;51.332;12.410;2023-03-01T10:26:03;20.55;;;13.75;;
34541;SDS011;20784;51.332;12.410;2023-03-01T10:29:57;25.70;;;15.10;;
34541;SDS011;20784;51.332;12.410;2023-03-01T10:32:11;19.80;;;14.15;;
34541;SDS011;20784;51.332;12.410;2023-03-01T10:34:37;21.08;;;14.07;;
34541;SDS011;20784;51.332;12.410;2023-03-01T10:42:39;22.15;;;14.18;;
34541;SDS011;20784;51.332;12.410;2023-03-01T10:50:40;20.52;;;13.23;;
34541;SDS011;20784;51.332;12.410;2023-03-01T10:53:20;23.33;;;13.35;;
34541;SDS011;20784;51.332;12.410;2023-03-01T10:55:56;23.27;;;14.73;;
34541;SDS011;20784;51.332;12.410;2023-03-01T10:58:26;19.65;;;13.80;;
34541;SDS011;20784;51.332;12.410;2023-03-01T11:00:57;20.95;;;13.43;;
34541;SDS011;20784;51.332;12.410;2023-03-01T11:03:36;23.48;;;13.88;;
34541;SDS011;20784;51.332;12.410;2023-03-01T11:13:55;19.10;;;12.57;;
34541;SDS011;20784;51.332;12.410;2023-03-01T11:19:38;22.95;;;14.60;;
34541;SDS011;20784;51.332;12.410;2023-03-01T11:24:51;20.23;;;15.05;;
34541;SDS011;20784;51.332;12.410;2023-03-01T11:30:33;27.58;;;17.00;;
34541;SDS011;20784;51.332;12.410;2023-03-01T11:36:16;22.90;;;16.13;;
34541;SDS011;20784;51.332;12.410;2023-03-01T11:39:50;24.98;;;16.23;;
34541;SDS011;20784;51.332;12.410;2023-03-01T11:42:14;23.08;;;16.48;;
34541;SDS011;20784;51.332;12.410;2023-03-01T11:44:43;24.90;;;16.83;;
34541;SDS011;20784;51.332;12.410;2023-03-01T11:47:31;26.30;;;16.38;;
34541;SDS011;20784;51.332;12.410;2023-03-01T11:50:15;26.15;;;16.85;;
34541;SDS011;20784;51.332;12.410;2023-03-01T11:56:22;24.05;;;15.65;;
34541;SDS011;20784;51.332;12.410;2023-03-01T11:59:12;24.98;;;16.52;;
34541;SDS011;20784;51.332;12.410;2023-03-01T12:01:48;25.23;;;16.60;;
34541;SDS011;20784;51.332;12.410;2023-03-01T12:10:16;31.20;;;17.15;;
34541;SDS011;20784;51.332;12.410;2023-03-01T12:13:05;28.23;;;16.77;;
34541;SDS011;20784;51.332;12.410;2023-03-01T12:16:03;23.20;;;15.43;;
34541;SDS011;20784;51.332;12.410;2023-03-01T12:24:14;21.05;;;13.85;;
34541;SDS011;20784;51.332;12.410;2023-03-01T12:30:04;28.42;;;13.48;;
34541;SDS011;20784;51.332;12.410;2023-03-01T12:35:46;18.13;;;11.57;;
34541;SDS011;20784;51.332;12.410;2023-03-01T12:38:46;23.52;;;13.27;;
34541;SDS011;20784;51.332;12.410;2023-03-01T12:41:24;25.98;;;13.30;;
34541;SDS011;20784;51.332;12.410;2023-03-01T12:49:28;18.77;;;11.75;;
34541;SDS011;20784;51.332;12.410;2023-03-01T12:54:42;24.60;;;12.85;;
34541;SDS011;20784;51.332;12.410;2023-03-01T13:11:52;20.40;;;12.52;;
34541;SDS011;20784;51.332;12.410;2023-03-01T13:16:50;22.30;;;12.98;;
34541;SDS011;20784;51.332;12.410;2023-03-01T13:19:26;27.40;;;13.25;;
34541;SDS011;20784;51.332;12.410;2023-03-01T13:22:01;22.38;;;13.52;;
34541;SDS011;20784;51.332;12.410;2023-03-01T13:25:01;21.15;;;13.13;;
34541;SDS011;20784;51.332;12.410;2023-03-01T13:27:36;20.85;;;12.43;;
34541;SDS011;20784;51.332;12.410;2023-03-01T13:30:02;22.75;;;13.75;;
34541;SDS011;20784;51.332;12.410;2023-03-01T13:32:36;22.95;;;13.15;;
34541;SDS011;20784;51.332;12.410;2023-03-01T13:37:43;21.77;;;12.82;;
34541;SDS011;20784;51.332;12.410;2023-03-01T13:42:54;22.73;;;13.20;;
34541;SDS011;20784;51.332;12.410;2023-03-01T13:45:43;20.73;;;13.00;;
34541;SDS011;20784;51.332;12.410;2023-03-01T13:48:26;23.50;;;12.23;;
34541;SDS011;20784;51.332;12.410;2023-03-01T13:51:04;17.60;;;12.60;;
34541;SDS011;20784;51.332;12.410;2023-03-01T13:53:40;17.98;;;11.75;;
34541;SDS011;20784;51.332;12.410;2023-03-01T13:56:20;20.77;;;12.38;;
34541;SDS011;20784;51.332;12.410;2023-03-01T13:58:48;20.42;;;12.75;;
34541;SDS011;20784;51.332;12.410;2023-03-01T14:01:26;19.77;;;12.80;;
34541;SDS011;20784;51.332;12.410;2023-03-01T14:03:59;21.88;;;12.75;;
34541;SDS011;20784;51.332;12.410;2023-03-01T14:06:35;20.35;;;12.65;;
34541;SDS011;20784;51.332;12.410;2023-03-01T14:09:20;27.20;;;12.90;;
34541;SDS011;20784;51.332;12.410;2023-03-01T14:12:02;22.27;;;12.20;;
34541;SDS011;20784;51.332;12.410;2023-03-01T14:17:38;27.30;;;12.90;;
34541;SDS011;20784;51.332;12.410;2023-03-01T14:20:31;21.45;;;12.57;;
34541;SDS011;20784;51.332;12.410;2023-03-01T14:22:58;18.13;;;11.13;;
34541;SDS011;20784;51.332;12.410;2023-03-01T14:25:36;19.17;;;10.73;;
34541;SDS011;20784;51.332;12.410;2023-03-01T14:28:17;17.25;;;9.88;;
34541;SDS011;20784;51.332;12.410;2023-03-01T14:30:54;25.65;;;12.70;;
34541;SDS011;20784;51.332;12.410;2023-03-01T14:33:28;21.70;;;10.68;;
34541;SDS011;20784;51.332;12.410;2023-03-01T14:38:40;18.55;;;9.10;;
34541;SDS011;20784;51.332;12.410;2023-03-01T14:41:16;15.30;;;9.45;;
34541;SDS011;20784;51.332;12.410;2023-03-01T14:43:52;15.50;;;8.75;;
34541;SDS011;20784;51.332;12.410;2023-03-01T14:46:41;17.25;;;9.50;;
34541;SDS011;20784;51.332;12.410;2023-03-01T14:49:16;14.38;;;9.27;;
34541;SDS011;20784;51.332;12.410;2023-03-01T14:51:52;13.95;;;8.82;;
34541;SDS011;20784;51.332;12.410;2023-03-01T14:56:53;15.88;;;8.90;;
34541;SDS011;20784;51.332;12.410;2023-03-01T14:59:23;16.90;;;9.10;;
34541;SDS011;20784;51.332;12.410;2023-03-01T15:01:50;16.48;;;9.10;;
34541;SDS011;20784;51.332;12.410;2023-03-01T15:04:18;13.43;;;9.20;;
34541;SDS011;20784;51.332;12.410;2023-03-01T15:06:50;14.68;;;8.45;;
34541;SDS011;20784;51.332;12.410;2023-03-01T15:09:17;15.25;;;8.32;;
34541;SDS011;20784;51.332;12.410;2023-03-01T15:11:43;19.73;;;9.40;;
34541;SDS011;20784;51.332;12.410;2023-03-01T15:14:24;12.48;;;8.43;;
34541;SDS011;20784;51.332;12.410;2023-03-01T15:16:52;13.32;;;8.45;;
34541;SDS011;20784;51.332;12.410;2023-03-01T15:22:12;16.10;;;8.38;;
34541;SDS011;20784;51.332;12.410;2023-03-01T15:24:40;21.70;;;9.23;;
34541;SDS011;20784;51.332;12.410;2023-03-01T15:27:18;11.23;;;7.25;;
34541;SDS011;20784;51.332;12.410;2023-03-01T15:29:50;13.57;;;7.97;;
34541;SDS011;20784;51.332;12.410;2023-03-01T15:32:31;14.32;;;8.27;;
34541;SDS011;20784;51.332;12.410;2023-03-01T15:34:59;13.80;;;7.93;;
34541;SDS011;20784;51.332;12.410;2023-03-01T15:37:44;13.13;;;7.07;;
34541;SDS011;20784;51.332;12.410;2023-03-01T15:42:56;17.95;;;8.57;;
34541;SDS011;20784;51.332;12.410;2023-03-01T15:45:56;14.02;;;7.40;;
34541;SDS011;20784;51.332;12.410;2023-03-01T15:48:23;12.43;;;7.28;;
34541;SDS011;20784;51.332;12.410;2023-03-01T15:50:54;21.40;;;7.85;;
34541;SDS011;20784;51.332;12.410;2023-03-01T15:53:32;29.17;;;8.40;;
34541;SDS011;20784;51.332;12.410;2023-03-01T15:56:01;18.25;;;8.38;;
34541;SDS011;20784;51.332;12.410;2023-03-01T15:58:27;24.58;;;8.98;;
34541;SDS011;20784;51.332;12.410;2023-03-01T16:00:53;17.33;;;8.98;;
34541;SDS011;20784;51.332;12.410;2023-03-01T16:03:22;14.23;;;7.80;;
34541;SDS011;20784;51.332;12.410;2023-03-01T16:05:53;14.30;;;7.85;;
34541;SDS011;20784;51.332;12.410;2023-03-01T16:08:19;17.48;;;8.52;;
34541;SDS011;20784;51.332;12.410;2023-03-01T16:10:47;13.48;;;8.50;;
34541;SDS011;20784;51.332;12.410;2023-03-01T16:13:16;17.20;;;8.23;;
34541;SDS011;20784;51.332;12.410;2023-03-01T16:15:42;15.25;;;7.65;;
34541;SDS011;20784;51.332;12.410;2023-03-01T16:18:08;15.73;;;8.57;;
34541;SDS011;20784;51.332;12.410;2023-03-01T16:20:37;18.35;;;9.07;;
34541;SDS011;20784;51.332;12.410;2023-03-01T16:23:09;29.05;;;8.40;;
34541;SDS011;20784;51.332;12.410;2023-03-01T16:25:42;24.45;;;8.57;;
34541;SDS011;20784;51.332;12.410;2023-03-01T16:28:08;14.40;;;8.10;;
34541;SDS011;20784;51.332;12.410;2023-03-01T16:30:45;22.33;;;8.60;;